Time;durP1;ratioP1;P1;durP2;ratioP2;P2;SDS_P1;SDS_P2;PMS_P1;PMS_P2;Temp;Humidity;BMP_temperature;BMP_pressure;BME280_temperature;BME280_humidity;BME280_pressure;Samples;Min_cycle;Max_cycle;Signal;HPM_P1;HPM_P2
2022/04/11 00:01:07;;;;;;;5.83;3.50;;;3.50;99.90;;;;;;5000491;28;20241;-79
2022/04/11 00:03:34;;;;;;;4.73;3.60;;;;;;;;;;5002110;28;20216;-80
2022/04/11 00:06:01;;;;;;;5.20;3.60;;;3.30;99.90;;;;;;5000789;28;20269;-79
2022/04/11 00:08:27;;;;;;;7.33;3.97;;;3.30;99.90;;;;;;5002089;28;20243;-81
2022/04/11 00:10:54;;;;;;;5.27;3.10;;;3.20;99.90;;;;;;5005386;28;20285;-80
2022/04/11 00:13:22;;;;;;;10.20;4.90;;;3.20;99.90;;;;;;5004808;28;20682;-80
2022/04/11 00:15:49;;;;;;;6.67;4.40;;;3.20;99.90;;;;;;5003905;28;20206;-81
2022/04/11 00:18:16;;;;;;;5.97;4.03;;;3.20;99.90;;;;;;4991443;28;20252;-79
2022/04/11 00:20:43;;;;;;;6.53;4.70;;;3.20;99.90;;;;;;5007723;28;20294;-79
2022/04/11 00:23:10;;;;;;;8.83;5.60;;;3.20;99.90;;;;;;5007746;28;20246;-78
2022/04/11 00:25:37;;;;;;;10.33;5.83;;;3.20;99.90;;;;;;5005670;28;20312;-80
2022/04/11 00:28:04;;;;;;;9.30;6.43;;;3.20;99.90;;;;;;5005856;28;20210;-80
2022/04/11 00:30:32;;;;;;;10.90;6.50;;;3.20;99.90;;;;;;5003645;28;20261;-79
2022/04/11 00:32:58;;;;;;;7.47;5.73;;;3.10;99.90;;;;;;4996490;28;20277;-78
2022/04/11 00:35:25;;;;;;;8.40;6.10;;;3.20;99.90;;;;;;5010966;28;20218;-81
2022/04/11 00:37:52;;;;;;;10.37;6.20;;;3.20;99.90;;;;;;4998128;28;20265;-80
2022/04/11 00:40:19;;;;;;;10.43;6.20;;;3.20;99.90;;;;;;5003776;28;20281;-79
2022/04/11 00:42:49;;;;;;;9.23;6.10;;;3.20;99.90;;;;;;5000458;28;20685;-79
2022/04/11 00:45:17;;;;;;;10.17;6.13;;;3.20;99.90;;;;;;5005223;28;20285;-79
2022/04/11 00:47:45;;;;;;;8.47;5.97;;;3.20;99.90;;;;;;4995625;28;20265;-79
2022/04/11 00:50:13;;;;;;;10.10;5.53;;;3.20;99.90;;;;;;4992438;28;20288;-82
2022/04/11 00:52:43;;;;;;;8.40;5.80;;;3.20;99.90;;;;;;5003475;28;20573;-79
2022/04/11 00:55:16;;;;;;;6.67;4.70;;;3.20;99.90;;;;;;5000913;28;20202;-79
2022/04/11 00:57:43;;;;;;;7.37;3.87;;;3.20;99.90;;;;;;5006445;28;20238;-79
2022/04/11 01:00:13;;;;;;;5.90;3.90;;;3.20;99.90;;;;;;4997803;28;20273;-80
2022/04/11 01:02:40;;;;;;;5.03;3.63;;;3.20;99.90;;;;;;4996568;28;20214;-79
2022/04/11 01:05:09;;;;;;;7.37;3.90;;;3.20;99.90;;;;;;5000742;28;20316;-79
2022/04/11 01:07:40;;;;;;;5.83;4.10;;;3.20;99.90;;;;;;5004139;28;20214;-78
2022/04/11 01:10:08;;;;;;;8.30;3.63;;;3.20;99.90;;;;;;4997817;28;20217;-80
2022/04/11 01:12:35;;;;;;;7.73;3.87;;;3.30;99.90;;;;;;5004487;28;20210;-79
2022/04/11 01:15:03;;;;;;;8.17;3.97;;;3.20;99.90;;;;;;5004419;28;20203;-79
2022/04/11 01:17:34;;;;;;;4.83;3.63;;;3.30;99.90;;;;;;5003048;28;20325;-80
2022/04/11 01:20:08;;;;;;;9.57;4.20;;;3.30;99.90;;;;;;4997850;28;20339;-80
2022/04/11 01:22:35;;;;;;;6.60;3.97;;;3.30;99.90;;;;;;4998591;28;20283;-79
2022/04/11 01:25:03;;;;;;;9.10;4.17;;;3.30;99.90;;;;;;5007200;28;20208;-80
2022/04/11 01:27:33;;;;;;;7.10;4.07;;;3.30;99.90;;;;;;4998728;28;20286;-79
2022/04/11 01:30:01;;;;;;;7.00;4.57;;;3.40;99.90;;;;;;5001780;28;20221;-80
2022/04/11 01:32:28;;;;;;;9.57;4.33;;;3.30;99.90;;;;;;4997819;28;20230;-80
2022/04/11 01:34:56;;;;;;;9.77;4.73;;;3.20;99.90;;;;;;4995187;28;20205;-78
2022/04/11 01:37:23;;;;;;;10.47;6.57;;;3.30;99.90;;;;;;4994870;28;20251;-80
2022/04/11 01:39:50;;;;;;;11.50;6.47;;;3.30;99.90;;;;;;5005290;28;20270;-79
2022/04/11 01:42:17;;;;;;;8.47;5.90;;;3.30;99.90;;;;;;4999365;28;20216;-79
2022/04/11 01:44:44;;;;;;;8.20;5.57;;;3.20;99.90;;;;;;5005540;28;20678;-81
2022/04/11 01:47:11;;;;;;;10.57;5.23;;;3.20;99.90;;;;;;4998681;28;20277;-81
2022/04/11 01:49:38;;;;;;;9.00;4.90;;;3.90;99.90;;;;;;4999473;28;20234;-79
2022/04/11 01:52:05;;;;;;;9.23;5.67;;;3.20;99.90;;;;;;5000597;28;20305;-81
2022/04/11 01:54:31;;;;;;;7.70;5.20;;;3.20;99.90;;;;;;5000097;28;20223;-78
2022/04/11 01:56:58;;;;;;;8.20;4.83;;;3.10;99.90;;;;;;4999875;28;20663;-80
2022/04/11 01:59:25;;;;;;;12.43;5.20;;;3.20;99.90;;;;;;4994251;28;20303;-78
2022/04/11 02:01:52;;;;;;;7.50;4.27;;;3.10;99.90;;;;;;5001292;28;20218;-79
2022/04/11 02:04:19;;;;;;;6.20;3.53;;;3.00;99.90;;;;;;4993839;28;20315;-81
2022/04/11 02:06:46;;;;;;;5.57;3.93;;;3.00;99.90;;;;;;5005948;28;20240;-80
2022/04/11 02:09:12;;;;;;;5.97;3.73;;;3.00;99.90;;;;;;5002323;28;20296;-81
2022/04/11 02:11:39;;;;;;;5.67;3.50;;;3.50;99.90;;;;;;5000779;28;20867;-80
2022/04/11 02:14:06;;;;;;;8.97;3.53;;;2.90;99.90;;;;;;4998843;28;20672;-79
2022/04/11 02:16:33;;;;;;;6.67;3.73;;;2.90;99.90;;;;;;4996211;28;20271;-78
2022/04/11 02:19:00;;;;;;;9.90;3.60;;;2.90;99.90;;;;;;4998833;28;20222;-79
2022/04/11 02:21:27;;;;;;;8.83;3.57;;;2.90;99.90;;;;;;5006166;28;20622;-80
2022/04/11 02:23:53;;;;;;;7.00;3.97;;;2.90;99.90;;;;;;5000924;28;20261;-79
2022/04/11 02:26:21;;;;;;;6.53;3.77;;;2.80;99.90;;;;;;5005472;28;20398;-80
2022/04/11 02:28:50;;;;;;;8.10;3.70;;;2.80;99.90;;;;;;5001224;28;20666;-80
2022/04/11 02:31:17;;;;;;;8.90;4.20;;;2.80;99.90;;;;;;4999737;28;20683;-79
2022/04/11 02:33:44;;;;;;;11.40;3.83;;;3.00;99.90;;;;;;4996093;28;20278;-78
2022/04/11 02:36:11;;;;;;;6.50;4.10;;;2.80;99.90;;;;;;4992684;28;20220;-78
2022/04/11 02:38:38;;;;;;;6.67;4.10;;;2.80;99.90;;;;;;4998512;28;20302;-79
2022/04/11 02:41:04;;;;;;;6.30;4.17;;;2.80;99.90;;;;;;4999721;28;20730;-79
2022/04/11 02:43:31;;;;;;;6.70;3.83;;;2.80;99.90;;;;;;4999695;28;20231;-79
2022/04/11 02:45:58;;;;;;;6.60;4.20;;;2.80;99.90;;;;;;5001088;28;20242;-79
2022/04/11 02:48:25;;;;;;;8.77;3.73;;;2.80;99.90;;;;;;4992763;28;20285;-80
2022/04/11 02:50:52;;;;;;;5.03;3.90;;;2.80;99.90;;;;;;5001628;28;20241;-78
2022/04/11 02:53:19;;;;;;;8.07;3.77;;;2.90;99.90;;;;;;5002020;28;20230;-79
2022/04/11 02:55:46;;;;;;;8.07;3.80;;;2.80;99.90;;;;;;5000436;28;20663;-78
2022/04/11 02:58:15;;;;;;;8.73;3.37;;;2.80;99.90;;;;;;5000910;28;20302;-81
2022/04/11 03:00:41;;;;;;;5.33;3.80;;;3.10;99.90;;;;;;5002252;28;20238;-79
2022/04/11 03:03:10;;;;;;;4.10;3.23;;;3.20;99.90;;;;;;5001315;28;20205;-79
2022/04/11 03:05:38;;;;;;;5.30;3.30;;;2.80;99.90;;;;;;4992900;28;20215;-80
2022/04/11 03:08:05;;;;;;;6.43;3.53;;;2.80;99.90;;;;;;4997275;28;20235;-81
2022/04/11 03:10:32;;;;;;;6.63;3.80;;;2.80;99.90;;;;;;4997707;28;20710;-80
2022/04/11 03:13:01;;;;;;;8.07;3.97;;;2.70;99.90;;;;;;5001838;28;20202;-80
2022/04/11 03:15:28;;;;;;;9.67;4.07;;;2.70;99.90;;;;;;4999652;28;20211;-79
2022/04/11 03:17:55;;;;;;;6.87;4.00;;;2.70;99.90;;;;;;4996155;28;20321;-79
2022/04/11 03:20:22;;;;;;;5.73;3.73;;;2.70;99.90;;;;;;5002140;28;20297;-79
2022/04/11 03:22:48;;;;;;;10.83;3.83;;;2.70;99.90;;;;;;5002175;28;20311;-79
2022/04/11 03:25:16;;;;;;;9.90;3.50;;;2.70;99.90;;;;;;4995526;28;20721;-80
2022/04/11 03:27:43;;;;;;;7.30;3.47;;;2.60;99.90;;;;;;5001719;28;20269;-79
2022/04/11 03:30:10;;;;;;;8.77;3.80;;;2.60;99.90;;;;;;4997921;28;20286;-79
2022/04/11 03:32:37;;;;;;;8.57;3.60;;;2.60;99.90;;;;;;5000987;28;20209;-79
2022/04/11 03:35:04;;;;;;;6.30;4.03;;;2.60;99.90;;;;;;4995324;28;20238;-79
2022/04/11 03:37:31;;;;;;;5.07;3.47;;;2.50;99.90;;;;;;4996869;28;20220;-79
2022/04/11 03:39:58;;;;;;;8.10;3.63;;;2.50;99.90;;;;;;4999308;28;20405;-79
2022/04/11 03:42:25;;;;;;;6.87;3.53;;;2.50;99.90;;;;;;5003184;28;20429;-79
2022/04/11 03:44:51;;;;;;;8.33;3.50;;;2.50;99.90;;;;;;5005994;28;20291;-79
2022/04/11 03:47:18;;;;;;;5.53;3.80;;;2.50;99.90;;;;;;5005858;28;20333;-81
2022/04/11 03:49:45;;;;;;;8.43;4.20;;;2.50;99.90;;;;;;5005566;28;20214;-79
2022/04/11 03:52:12;;;;;;;5.90;3.70;;;2.40;99.90;;;;;;5006399;28;20225;-79
2022/04/11 03:54:39;;;;;;;6.37;3.97;;;2.50;99.90;;;;;;5003485;28;20210;-79
2022/04/11 03:57:05;;;;;;;7.73;4.00;;;2.40;99.90;;;;;;5007430;28;21093;-80
2022/04/11 03:59:32;;;;;;;7.53;4.10;;;2.40;99.90;;;;;;5010611;28;20261;-79
2022/04/11 04:01:59;;;;;;;7.77;4.07;;;2.50;99.90;;;;;;5003439;28;20214;-79
2022/04/11 04:04:26;;;;;;;6.40;4.03;;;2.40;99.90;;;;;;5008566;28;20660;-80
2022/04/11 04:06:53;;;;;;;6.83;3.90;;;2.40;99.90;;;;;;5001754;28;20337;-78
2022/04/11 04:09:20;;;;;;;7.30;3.70;;;2.40;99.90;;;;;;5007709;28;20307;-80
2022/04/11 04:11:47;;;;;;;5.77;3.90;;;2.30;99.90;;;;;;5004397;28;20241;-79
2022/04/11 04:14:14;;;;;;;6.57;4.27;;;2.30;99.90;;;;;;5008699;28;20207;-79
2022/04/11 04:16:40;;;;;;;6.20;4.33;;;2.30;99.90;;;;;;5003399;28;20268;-78
2022/04/11 04:19:08;;;;;;;7.93;4.17;;;2.40;99.90;;;;;;4991255;28;20246;-79
2022/04/11 04:21:34;;;;;;;6.83;4.13;;;2.40;99.90;;;;;;5008933;28;20225;-78
2022/04/11 04:24:01;;;;;;;6.13;4.47;;;2.40;99.90;;;;;;5003924;28;20246;-79
2022/04/11 04:26:28;;;;;;;7.80;4.40;;;2.00;99.90;;;;;;5001434;28;20274;-79
2022/04/11 04:28:55;;;;;;;8.97;4.33;;;3.20;99.90;;;;;;5001826;28;20658;-79
2022/04/11 04:31:21;;;;;;;11.33;5.33;;;2.50;99.90;;;;;;5003804;28;20199;-80
2022/04/11 04:33:48;;;;;;;10.43;5.50;;;2.60;99.90;;;;;;4998840;28;20226;-80
2022/04/11 04:36:15;;;;;;;10.10;5.70;;;1.90;99.90;;;;;;5002102;28;20297;-78
2022/04/11 04:38:42;;;;;;;12.87;5.57;;;3.60;99.90;;;;;;5004476;28;20233;-78
2022/04/11 04:41:09;;;;;;;12.20;5.90;;;2.80;99.90;;;;;;5001406;28;20295;-79
2022/04/11 04:43:35;;;;;;;13.43;5.77;;;2.90;99.90;;;;;;5006209;28;20233;-78
2022/04/11 04:46:02;;;;;;;10.63;5.57;;;2.90;99.90;;;;;;5006922;28;20214;-80
2022/04/11 04:48:29;;;;;;;10.97;5.97;;;3.00;99.90;;;;;;5004057;28;20324;-79
2022/04/11 04:50:56;;;;;;;12.87;5.93;;;3.00;99.90;;;;;;5008064;28;20649;-80
2022/04/11 04:53:24;;;;;;;12.27;5.47;;;3.10;99.90;;;;;;5005180;28;20305;-80
2022/04/11 04:55:54;;;;;;;8.50;5.27;;;3.10;99.90;;;;;;4997600;28;20199;-78
2022/04/11 04:58:21;;;;;;;13.57;5.70;;;3.10;99.90;;;;;;5006461;28;20207;-79
2022/04/11 05:00:48;;;;;;;7.23;5.43;;;3.20;99.90;;;;;;5000339;28;20739;-79
2022/04/11 05:03:15;;;;;;;11.40;5.70;;;3.30;99.90;;;;;;4998320;28;20211;-81
2022/04/11 05:05:41;;;;;;;7.43;5.17;;;3.30;99.90;;;;;;4995821;28;20206;-81
2022/04/11 05:08:08;;;;;;;9.03;5.43;;;3.40;99.90;;;;;;5005221;28;20329;-80
2022/04/11 05:10:35;;;;;;;9.53;5.67;;;3.40;99.90;;;;;;5003135;28;20633;-79
2022/04/11 05:13:02;;;;;;;8.83;5.47;;;3.50;99.90;;;;;;4997543;28;20209;-80
2022/04/11 05:15:29;;;;;;;10.27;6.60;;;3.50;99.90;;;;;;5000728;28;20211;-80
2022/04/11 05:17:56;;;;;;;12.60;5.60;;;3.60;99.90;;;;;;5001355;28;20783;-80
2022/04/11 05:20:22;;;;;;;10.87;7.47;;;3.40;99.90;;;;;;5000854;28;20289;-80
2022/04/11 05:22:49;;;;;;;14.33;7.53;;;4.20;99.90;;;;;;4998086;28;20769;-79
2022/04/11 05:25:16;;;;;;;13.00;8.07;;;3.70;99.90;;;;;;5002596;28;20214;-81
2022/04/11 05:27:43;;;;;;;11.30;7.13;;;3.70;99.90;;;;;;4998394;28;20291;-81
2022/04/11 05:30:10;;;;;;;10.70;7.80;;;3.80;99.90;;;;;;5003956;28;20297;-79
2022/04/11 05:32:37;;;;;;;11.33;7.77;;;3.60;99.90;;;;;;5005933;28;20220;-80
2022/04/11 05:35:04;;;;;;;12.27;8.00;;;3.40;99.90;;;;;;5006689;28;20211;-82
2022/04/11 05:37:31;;;;;;;9.33;7.00;;;3.90;99.90;;;;;;5002998;28;20273;-81
2022/04/11 05:40:01;;;;;;;15.67;7.60;;;4.00;99.90;;;;;;5005242;28;20200;-81
2022/04/11 05:42:28;;;;;;;11.32;8.77;;;4.00;99.90;;;;;;4997422;28;20449;-81
2022/04/11 05:44:55;;;;;;;13.83;7.47;;;4.40;99.90;;;;;;4997444;28;20260;-81
2022/04/11 05:47:22;;;;;;;14.87;7.73;;;5.30;99.90;;;;;;5007359;28;20256;-79
2022/04/11 05:49:48;;;;;;;15.20;8.70;;;4.40;99.90;;;;;;4992341;28;20210;-79
2022/04/11 05:52:16;;;;;;;13.47;8.37;;;4.40;99.90;;;;;;5003411;28;20328;-80
2022/04/11 05:54:44;;;;;;;13.27;7.53;;;4.40;99.90;;;;;;4997843;28;20291;-81
2022/04/11 05:57:11;;;;;;;13.47;7.50;;;4.40;99.90;;;;;;4998800;28;20220;-80
2022/04/11 05:59:38;;;;;;;12.17;7.73;;;4.50;99.90;;;;;;4998791;28;20311;-81
2022/04/11 06:02:05;;;;;;;10.73;7.37;;;4.50;99.90;;;;;;4995307;28;20661;-79
2022/04/11 06:04:32;;;;;;;16.57;8.23;;;4.60;99.90;;;;;;4998494;28;20205;-81
2022/04/11 06:06:59;;;;;;;18.27;9.10;;;4.60;99.90;;;;;;4998073;28;20234;-79
2022/04/11 06:09:25;;;;;;;12.97;7.43;;;4.90;99.90;;;;;;4994160;28;20296;-80
2022/04/11 06:11:52;;;;;;;17.03;8.43;;;5.50;99.90;;;;;;5000305;28;20213;-80
2022/04/11 06:14:19;;;;;;;13.00;8.70;;;4.80;99.90;;;;;;4997641;28;20303;-80
2022/04/11 06:16:46;;;;;;;13.70;8.30;;;4.90;99.90;;;;;;4992267;28;20331;-80
2022/04/11 06:19:13;;;;;;;13.07;7.80;;;5.00;99.90;;;;;;4996134;28;20771;-80
2022/04/11 06:21:40;;;;;;;11.40;7.07;;;5.10;99.90;;;;;;4999042;28;20225;-82
2022/04/11 06:24:07;;;;;;;12.00;7.50;;;5.20;99.90;;;;;;4992833;28;20229;-81
2022/04/11 06:26:34;;;;;;;12.60;7.93;;;5.40;99.90;;;;;;4993059;28;20203;-81
2022/04/11 06:29:01;;;;;;;12.17;7.70;;;5.90;99.90;;;;;;4994538;28;20245;-83
2022/04/11 06:31:28;;;;;;;12.87;8.33;;;;;;;;;;4998314;28;20371;-82
2022/04/11 06:33:55;;;;;;;13.33;7.77;;;5.60;99.90;;;;;;5002205;28;20212;-82
2022/04/11 06:36:22;;;;;;;15.07;8.13;;;5.70;99.90;;;;;;5004752;28;20309;-83
2022/04/11 06:38:49;;;;;;;13.27;8.50;;;5.40;99.90;;;;;;5001701;28;20244;-82
2022/04/11 06:41:16;;;;;;;12.97;8.20;;;7.10;99.90;;;;;;5000192;28;20670;-82
2022/04/11 06:43:43;;;;;;;12.33;8.00;;;;;;;;;;5001541;28;20297;-82
2022/04/11 06:46:09;;;;;;;17.80;7.50;;;7.60;99.90;;;;;;4998847;28;21383;-82
2022/04/11 06:48:37;;;;;;;12.13;6.90;;;8.80;99.90;;;;;;4994256;28;20243;-83
2022/04/11 06:51:04;;;;;;;9.83;6.53;;;10.10;99.90;;;;;;4999648;28;20257;-83
2022/04/11 06:53:31;;;;;;;10.00;5.97;;;;;;;;;;5002578;28;20223;-82
2022/04/11 06:55:58;;;;;;;7.57;6.17;;;12.10;99.90;;;;;;5002025;28;20293;-82
2022/04/11 06:58:27;;;;;;;10.40;6.20;;;13.00;99.90;;;;;;4999692;28;20542;-81
2022/04/11 07:00:54;;;;;;;10.73;6.23;;;13.80;99.90;;;;;;4996473;28;20201;-83
2022/04/11 07:03:21;;;;;;;12.20;5.70;;;14.40;99.90;;;;;;5001475;28;20470;-84
2022/04/11 07:05:47;;;;;;;12.25;6.13;;;14.80;99.90;;;;;;4999340;28;20234;-82
2022/04/11 07:08:14;;;;;;;8.82;6.20;;;15.20;99.90;;;;;;4999035;28;20321;-89
2022/04/11 07:10:43;;;;;;;10.00;6.22;;;15.70;99.90;;;;;;5004322;28;20203;-83
2022/04/11 07:13:10;;;;;;;12.23;6.28;;;16.20;99.90;;;;;;4996475;28;20685;-84
2022/04/11 07:15:37;;;;;;;9.95;6.65;;;16.30;99.90;;;;;;4999623;28;20230;-84
2022/04/11 07:18:04;;;;;;;9.95;6.97;;;16.10;99.90;;;;;;5003633;28;20661;-83
2022/04/11 07:20:31;;;;;;;9.55;7.60;;;15.50;99.90;;;;;;4999125;28;20305;-82
2022/04/11 07:22:58;;;;;;;10.30;7.63;;;14.90;99.90;;;;;;5002270;28;20327;-83
2022/04/11 07:25:26;;;;;;;10.43;7.67;;;14.50;99.90;;;;;;5003569;28;20363;-81
2022/04/11 07:27:55;;;;;;;11.67;7.80;;;13.90;99.90;;;;;;5011739;28;20285;-84
2022/04/11 07:30:22;;;;;;;11.20;7.87;;;13.50;99.90;;;;;;5001829;28;20222;-83
2022/04/11 07:32:50;;;;;;;10.90;7.17;;;13.00;99.90;;;;;;5006826;28;20222;-83
2022/04/11 07:35:17;;;;;;;8.83;7.03;;;12.60;99.90;;;;;;5003373;28;20286;-83
2022/04/11 07:37:43;;;;;;;9.23;7.40;;;12.30;99.90;;;;;;5008543;28;20218;-82
2022/04/11 07:40:11;;;;;;;9.90;7.30;;;12.00;99.90;;;;;;5001876;28;20210;-82
2022/04/11 07:42:38;;;;;;;9.60;7.53;;;11.80;99.90;;;;;;5010686;28;20235;-83
2022/04/11 07:45:05;;;;;;;11.37;7.33;;;11.70;99.90;;;;;;5006247;28;20299;-82
2022/04/11 07:47:32;;;;;;;13.40;8.23;;;11.60;99.90;;;;;;5016188;28;20272;-83
2022/04/11 07:50:05;;;;;;;12.40;8.57;;;11.60;99.90;;;;;;5032637;28;20261;-83
2022/04/11 07:52:32;;;;;;;12.77;8.40;;;11.70;99.90;;;;;;5017959;28;20830;-82
2022/04/11 07:54:59;;;;;;;13.27;8.67;;;11.80;99.90;;;;;;5022635;28;20623;-84
2022/04/11 07:57:26;;;;;;;12.17;8.13;;;11.90;99.90;;;;;;5021622;28;20543;-84
2022/04/11 08:00:13;;;;;;;12.60;8.53;;;11.90;99.90;;;;;;5018903;28;20205;-84
2022/04/11 08:02:40;;;;;;;13.63;8.47;;;12.10;99.90;;;;;;5017844;28;20226;-84
2022/04/11 08:05:07;;;;;;;14.30;7.57;;;12.60;99.90;;;;;;5018214;28;20221;-82
2022/04/11 08:07:35;;;;;;;9.93;7.30;;;13.30;99.90;;;;;;5009080;28;20211;-83
2022/04/11 08:10:07;;;;;;;14.37;7.50;;;13.90;99.90;;;;;;5006881;28;20256;-85
2022/04/11 08:12:34;;;;;;;14.32;8.00;;;14.60;99.90;;;;;;5012328;28;20682;-84
2022/04/11 08:15:01;;;;;;;9.60;7.25;;;15.10;99.90;;;;;;5011518;28;20214;-86
2022/04/11 08:17:28;;;;;;;8.57;6.45;;;15.60;99.90;;;;;;5008324;28;20590;-82
2022/04/11 08:19:55;;;;;;;9.25;6.82;;;16.00;99.90;;;;;;5007615;28;20679;-84
2022/04/11 08:22:22;;;;;;;8.07;6.50;;;15.90;99.90;;;;;;5004747;28;20773;-85
2022/04/11 08:24:49;;;;;;;7.30;6.07;;;16.00;99.90;;;;;;5003460;28;20638;-85
2022/04/11 08:27:16;;;;;;;10.57;6.43;;;16.40;99.90;;;;;;5009402;28;20199;-86
2022/04/11 08:29:47;;;;;;;9.50;6.50;;;16.50;99.90;;;;;;5006650;28;20228;-86
2022/04/11 08:32:14;;;;;;;10.40;6.63;;;16.60;99.90;;;;;;5008086;28;20207;-84
2022/04/11 08:34:41;;;;;;;8.98;6.45;;;16.80;99.90;;;;;;5011249;28;20645;-86
2022/04/11 08:37:08;;;;;;;6.97;6.28;;;16.90;99.90;;;;;;5008261;28;20214;-88
2022/04/11 08:39:35;;;;;;;7.68;6.60;;;17.20;99.90;;;;;;5008059;28;20276;-85
2022/04/11 08:42:03;;;;;;;8.40;6.22;;;17.40;99.90;;;;;;5006585;28;20550;-83
2022/04/11 08:44:36;;;;;;;9.07;5.75;;;17.60;99.90;;;;;;5009801;28;20615;-87
2022/04/11 08:47:05;;;;;;;13.50;6.70;;;17.60;98.70;;;;;;5010648;28;20286;-84
2022/04/11 08:49:32;;;;;;;8.30;6.25;;;17.60;98.70;;;;;;5009046;28;20329;-84
2022/04/11 08:52:01;;;;;;;9.55;5.95;;;17.80;99.50;;;;;;5005806;28;20221;-85
2022/04/11 08:54:29;;;;;;;7.10;6.30;;;17.90;99.20;;;;;;5011012;28;20321;-86
2022/04/11 08:56:56;;;;;;;9.10;6.90;;;18.10;98.70;;;;;;5008725;28;20651;-86
2022/04/11 08:59:23;;;;;;;14.07;7.53;;;18.30;98.30;;;;;;5003949;28;20210;-84
2022/04/11 09:01:50;;;;;;;10.48;6.38;;;18.30;97.70;;;;;;5015430;28;20669;-87
2022/04/11 09:04:17;;;;;;;8.27;5.90;;;18.30;97.40;;;;;;5011168;28;20209;-85
2022/04/11 09:06:59;;;;;;;8.15;6.70;;;18.20;97.00;;;;;;5008203;28;20264;-86
2022/04/11 09:09:39;;;;;;;7.15;6.32;;;18.20;96.50;;;;;;5009070;28;20544;-89
2022/04/11 09:12:14;;;;;;;8.13;5.93;;;18.20;96.50;;;;;;5008694;28;20209;-85
2022/04/11 09:14:51;;;;;;;8.80;7.05;;;18.30;96.30;;;;;;5010443;28;20233;-85
2022/04/11 09:17:21;;;;;;;10.48;6.38;;;18.20;95.80;;;;;;5008283;28;20650;-86
2022/04/11 09:20:10;;;;;;;13.20;7.25;;;18.30;95.70;;;;;;5009279;28;20284;-89
2022/04/11 09:22:41;;;;;;;9.73;6.20;;;18.30;95.50;;;;;;5005892;28;20230;-83
2022/04/11 09:25:13;;;;;;;8.63;5.70;;;18.30;95.10;;;;;;5014406;28;20290;-87
2022/04/11 09:27:41;;;;;;;9.52;6.72;;;18.30;94.80;;;;;;5013896;28;20206;-85
2022/04/11 09:30:18;;;;;;;10.10;7.40;;;18.30;94.30;;;;;;5009670;28;20245;-84
2022/04/11 09:33:02;;;;;;;10.35;6.50;;;18.20;94.10;;;;;;5006975;28;20201;-85
2022/04/11 09:35:34;;;;;;;11.18;6.55;;;18.00;94.50;;;;;;5005179;28;20667;-86
2022/04/11 09:38:10;;;;;;;10.20;6.25;;;17.70;94.30;;;;;;5007996;28;20218;-83
2022/04/11 09:40:42;;;;;;;11.38;7.10;;;17.40;94.70;;;;;;5005227;28;20198;-84
2022/04/11 09:43:11;;;;;;;10.13;6.18;;;17.30;95.50;;;;;;5002458;28;20211;-83
2022/04/11 09:45:42;;;;;;;7.25;6.00;;;17.30;95.10;;;;;;5008835;28;20255;-85
2022/04/11 09:48:14;;;;;;;8.45;6.10;;;17.50;94.40;;;;;;5005565;28;20501;-86
2022/04/11 09:50:41;;;;;;;27.45;8.43;;;17.60;94.00;;;;;;5008694;28;20565;-87
2022/04/11 09:53:10;;;;;;;9.38;6.13;;;17.60;94.10;;;;;;5009971;28;20238;-87
2022/04/11 09:55:38;;;;;;;9.65;6.45;;;17.70;94.00;;;;;;5001227;28;20228;-84
2022/04/11 09:58:06;;;;;;;7.68;6.18;;;17.60;94.30;;;;;;4995837;28;20554;-85
2022/04/11 10:00:39;;;;;;;10.68;6.90;;;17.70;94.00;;;;;;5007679;28;20198;-85
2022/04/11 10:03:07;;;;;;;9.38;6.68;;;17.70;93.10;;;;;;5001600;28;20341;-83
2022/04/11 10:05:40;;;;;;;9.43;7.63;;;17.70;92.50;;;;;;5004044;28;20202;-84
2022/04/11 10:08:10;;;;;;;9.70;7.30;;;17.70;92.30;;;;;;5004082;28;20226;-86
2022/04/11 10:10:39;;;;;;;10.63;7.53;;;17.70;91.60;;;;;;4999910;28;20725;-84
2022/04/11 10:13:14;;;;;;;8.75;7.55;;;17.50;91.20;;;;;;5005889;28;20268;-88
2022/04/11 10:15:45;;;;;;;12.70;7.60;;;17.40;90.70;;;;;;5008702;28;20210;-86
2022/04/11 10:18:15;;;;;;;11.30;7.15;;;17.30;90.80;;;;;;5003638;28;20284;-85
2022/04/11 10:20:46;;;;;;;14.20;7.45;;;17.20;91.00;;;;;;5004160;28;20198;-85
2022/04/11 10:24:00;;;;;;;11.52;6.78;;;17.10;91.60;;;;;;4999993;28;20219;-86
2022/04/11 10:26:47;;;;;;;9.07;7.28;;;17.10;91.40;;;;;;4999564;28;20832;-85
2022/04/11 10:29:34;;;;;;;10.13;7.68;;;17.20;91.20;;;;;;4986304;28;20276;-84
2022/04/11 10:32:11;;;;;;;10.13;7.88;;;17.20;90.10;;;;;;5008557;28;20297;-87
2022/04/11 10:34:54;;;;;;;12.88;8.30;;;17.30;90.00;;;;;;5003353;28;20203;-88
2022/04/11 10:37:25;;;;;;;13.85;7.75;;;17.40;89.10;;;;;;5002474;28;20223;-86
2022/04/11 10:39:54;;;;;;;11.88;8.63;;;17.30;88.10;;;;;;5016468;28;20565;-87
2022/04/11 10:42:23;;;;;;;14.65;8.70;;;17.10;86.30;;;;;;5010535;28;20288;-87
2022/04/11 10:44:56;;;;;;;11.23;8.50;;;16.90;86.00;;;;;;5007968;28;20234;-87
2022/04/11 10:47:31;;;;;;;11.25;7.30;;;16.80;85.70;;;;;;5011551;28;20202;-90
2022/04/11 10:50:04;;;;;;;8.83;6.30;;;16.80;85.40;;;;;;5004132;28;20249;-87
2022/04/11 10:52:38;;;;;;;10.77;7.17;;;16.70;85.50;;;;;;5011018;28;20260;-87
2022/04/11 10:55:04;;;;;;;8.03;6.47;;;16.60;84.80;;;;;;5013382;28;20211;-86
2022/04/11 10:57:41;;;;;;;11.93;6.30;;;16.60;85.40;;;;;;5010632;28;20211;-86
2022/04/11 11:00:22;;;;;;;11.33;6.93;;;16.60;86.40;;;;;;5008268;28;20557;-85
2022/04/11 11:05:35;;;;;;;9.30;5.67;;;16.70;86.10;;;;;;5010203;28;20272;-88
2022/04/11 11:08:15;;;;;;;6.40;5.77;;;16.70;85.50;;;;;;5009239;28;20273;-86
2022/04/11 11:10:55;;;;;;;7.83;5.57;;;16.80;86.70;;;;;;5010584;28;20207;-84
2022/04/11 11:13:34;;;;;;;9.32;5.68;;;17.00;87.30;;;;;;5021196;28;20205;-85
2022/04/11 11:16:22;;;;;;;10.55;6.18;;;17.10;86.80;;;;;;5027773;28;20215;-87
2022/04/11 11:19:10;;;;;;;8.03;4.80;;;17.30;85.80;;;;;;5007224;28;20289;-85
2022/04/11 11:21:41;;;;;;;8.07;5.03;;;17.20;85.20;;;;;;5007664;28;20222;-86
2022/04/11 11:24:10;;;;;;;8.93;5.13;;;17.50;85.40;;;;;;5005212;28;20630;-87
2022/04/11 11:26:46;;;;;;;7.18;5.05;;;17.60;85.00;;;;;;5008801;28;20203;-87
2022/04/11 11:29:39;;;;;;;5.07;4.55;;;17.60;83.20;;;;;;5010581;28;20226;-87
2022/04/11 11:32:08;;;;;;;9.23;4.93;;;17.50;82.30;;;;;;5015406;28;20226;-86
2022/04/11 11:34:36;;;;;;;7.22;4.85;;;17.30;82.50;;;;;;5007632;28;20249;-86
2022/04/11 11:37:06;;;;;;;8.00;4.40;;;17.00;81.90;;;;;;5011333;28;20215;-84
2022/04/11 11:39:35;;;;;;;5.83;4.27;;;17.10;82.00;;;;;;5005079;28;20210;-85
2022/04/11 11:42:11;;;;;;;8.77;4.57;;;17.20;82.70;;;;;;5005994;28;20207;-85
2022/04/11 11:44:48;;;;;;;6.70;4.30;;;17.10;81.30;;;;;;5012876;28;20290;-86
2022/04/11 11:47:16;;;;;;;5.93;3.80;;;17.10;81.30;;;;;;5005481;28;20203;-86
2022/04/11 11:49:49;;;;;;;9.47;4.67;;;17.10;80.60;;;;;;5000976;28;20254;-86
2022/04/11 11:52:18;;;;;;;7.82;4.70;;;17.20;81.60;;;;;;5011865;28;20219;-88
2022/04/11 11:54:49;;;;;;;8.15;4.93;;;17.20;81.90;;;;;;5008498;28;20749;-86
2022/04/11 11:57:22;;;;;;;8.00;4.20;;;17.30;84.00;;;;;;5011918;28;20199;-84
2022/04/11 12:00:07;;;;;;;7.05;4.68;;;17.40;82.80;;;;;;5009443;28;20217;-86
2022/04/11 12:05:30;;;;;;;7.30;4.30;;;17.20;81.20;;;;;;5002393;28;20290;-85
2022/04/11 12:08:13;;;;;;;8.80;5.00;;;17.00;80.40;;;;;;5003635;28;20210;-86
2022/04/11 12:10:41;;;;;;;6.93;4.23;;;16.80;79.90;;;;;;5012955;28;20608;-85
2022/04/11 12:13:10;;;;;;;8.90;4.47;;;16.80;80.20;;;;;;5006090;28;20204;-87
2022/04/11 12:15:38;;;;;;;6.57;4.27;;;16.70;80.60;;;;;;5030914;28;20215;-88
2022/04/11 12:18:07;;;;;;;9.60;4.50;;;17.00;81.00;;;;;;5017400;28;20226;-87
2022/04/11 12:20:35;;;;;;;6.32;4.20;;;17.10;80.20;;;;;;5013707;28;20294;-88
2022/04/11 12:23:10;;;;;;;5.27;3.87;;;17.20;79.10;;;;;;5011301;28;20226;-89
2022/04/11 12:25:48;;;;;;;4.50;3.47;;;17.20;77.40;;;;;;5013118;28;20635;-86
2022/04/11 12:28:20;;;;;;;7.03;3.40;;;17.30;78.70;;;;;;5005117;28;20199;-88
2022/04/11 12:31:05;;;;;;;7.35;4.10;;;17.40;78.80;;;;;;5010281;28;20237;-88
2022/04/11 12:33:39;;;;;;;6.25;4.38;;;17.30;78.60;;;;;;5003209;28;20203;-86
2022/04/11 12:36:07;;;;;;;7.95;4.00;;;17.30;78.60;;;;;;5002198;28;20285;-88
2022/04/11 12:38:42;;;;;;;6.03;3.95;;;17.20;78.10;;;;;;5010998;28;20230;-86
2022/04/11 12:41:31;;;;;;;7.03;4.45;;;17.20;77.30;;;;;;5002493;28;20226;-86
2022/04/11 12:44:16;;;;;;;5.63;4.37;;;17.30;77.90;;;;;;5014204;28;20648;-85
2022/04/11 12:47:03;;;;;;;8.70;4.93;;;17.30;79.70;;;;;;5008223;28;20237;-87
2022/04/11 12:49:42;;;;;;;8.68;4.82;;;17.40;80.30;;;;;;5009146;28;20234;-87
2022/04/11 12:52:09;;;;;;;7.30;4.50;;;17.50;81.30;;;;;;5003267;28;20316;-87
2022/04/11 12:54:38;;;;;;;8.15;4.30;;;17.60;81.40;;;;;;5001736;28;20245;-85
2022/04/11 12:57:07;;;;;;;5.97;4.65;;;17.60;80.40;;;;;;5002751;28;20207;-86
2022/04/11 12:59:38;;;;;;;6.80;4.63;;;17.70;79.50;;;;;;4997039;28;20242;-84
2022/04/11 13:02:05;;;;;;;8.52;5.40;;;17.70;79.40;;;;;;5000967;28;20269;-86
2022/04/11 13:04:38;;;;;;;6.75;4.80;;;17.70;78.20;;;;;;5004344;28;20202;-86
2022/04/11 13:07:06;;;;;;;7.95;5.28;;;17.60;78.00;;;;;;5004722;28;20268;-87